createdAt,value
2019-05-25T00:00:18.268Z,14.25
2019-05-25T00:01:18.251Z,14.29
2019-05-25T00:02:18.236Z,14.22
2019-05-25T00:03:18.216Z,14.12
2019-05-25T00:04:18.212Z,14.09
2019-05-25T00:05:18.181Z,14.17
2019-05-25T00:06:18.163Z,14.14
2019-05-25T00:07:18.146Z,14.04
2019-05-25T00:08:18.129Z,14.07
2019-05-25T00:09:18.128Z,14.09
2019-05-25T00:10:18.097Z,13.97
2019-05-25T00:11:18.079Z,13.99
2019-05-25T00:12:18.066Z,14.06
2019-05-25T00:13:18.041Z,13.99
2019-05-25T00:14:18.040Z,13.95
2019-05-25T00:15:18.009Z,13.82
2019-05-25T00:16:17.990Z,13.78
2019-05-25T00:17:17.975Z,13.70
2019-05-25T00:18:17.988Z,13.44
2019-05-25T00:19:17.939Z,13.45
2019-05-25T00:20:17.920Z,13.44
2019-05-25T00:21:17.906Z,13.48
2019-05-25T00:22:17.886Z,13.48
2019-05-25T00:23:17.886Z,13.33
2019-05-25T00:24:17.851Z,13.26
2019-05-25T00:25:17.849Z,13.33
2019-05-25T00:26:17.815Z,13.15
2019-05-25T00:27:17.802Z,13.07
2019-05-25T00:28:17.781Z,13.01
2019-05-25T00:29:17.777Z,13.00
2019-05-25T00:30:17.748Z,12.85
2019-05-25T00:31:17.730Z,12.82
2019-05-25T00:32:17.711Z,12.78
2019-05-25T00:33:17.694Z,12.72
2019-05-25T00:34:17.687Z,12.62
2019-05-25T00:35:17.664Z,12.53
2019-05-25T00:36:17.640Z,12.47
2019-05-25T00:37:17.626Z,12.46
2019-05-25T00:38:17.607Z,12.34
2019-05-25T00:39:17.602Z,12.27
2019-05-25T00:40:17.571Z,12.28
2019-05-25T00:41:17.557Z,12.35
2019-05-25T00:42:17.533Z,12.37
2019-05-25T00:43:17.518Z,12.31
2019-05-25T00:44:17.513Z,12.23
2019-05-25T00:45:17.479Z,12.24
2019-05-25T00:46:17.462Z,12.20
2019-05-25T00:47:17.445Z,12.13
2019-05-25T00:48:17.427Z,12.16
2019-05-25T00:49:17.424Z,12.10
2019-05-25T00:50:17.391Z,11.96
2019-05-25T00:51:17.374Z,12.04
2019-05-25T00:52:17.426Z,12.05
2019-05-25T00:53:17.336Z,12.02
2019-05-25T00:54:27.603Z,11.99
2019-05-25T00:55:17.302Z,12.02
2019-05-25T00:56:17.288Z,11.99
2019-05-25T00:57:17.266Z,12.04
2019-05-25T00:58:17.250Z,11.98
2019-05-25T00:59:17.270Z,11.90
2019-05-25T01:00:17.216Z,11.85
2019-05-25T01:01:17.206Z,11.83
2019-05-25T01:02:17.175Z,11.75
2019-05-25T01:03:17.162Z,11.67
2019-05-25T01:04:17.140Z,11.82
2019-05-25T01:05:17.136Z,11.88
2019-05-25T01:06:17.103Z,11.96
2019-05-25T01:07:17.088Z,12.01
2019-05-25T01:08:17.069Z,12.01
2019-05-25T01:09:17.048Z,12.19
2019-05-25T01:10:17.075Z,12.23
2019-05-25T01:11:17.012Z,12.23
2019-05-25T01:12:16.994Z,12.07
2019-05-25T01:13:16.975Z,12.16
2019-05-25T01:14:16.961Z,12.07
2019-05-25T01:15:16.953Z,12.09
2019-05-25T01:16:16.925Z,11.99
2019-05-25T01:17:16.905Z,12.04
2019-05-25T01:18:16.887Z,12.14
2019-05-25T01:19:16.870Z,12.05
2019-05-25T01:20:16.873Z,11.98
2019-05-25T01:21:16.831Z,11.98
2019-05-25T01:22:16.814Z,11.98
2019-05-25T01:23:16.794Z,11.99
2019-05-25T01:24:16.779Z,11.91
2019-05-25T01:25:16.777Z,11.80
2019-05-25T01:26:16.739Z,11.90
2019-05-25T01:27:16.727Z,11.79
2019-05-25T01:28:16.704Z,11.70
2019-05-25T01:29:16.684Z,11.72
2019-05-25T01:30:16.681Z,11.64
2019-05-25T01:31:16.648Z,11.73
2019-05-25T01:32:16.631Z,11.61
2019-05-25T01:33:16.612Z,11.52
2019-05-25T01:34:16.591Z,11.54
2019-05-25T01:35:16.589Z,11.52
2019-05-25T01:36:16.561Z,11.62
2019-05-25T01:37:16.574Z,11.57
2019-05-25T01:38:16.521Z,11.70
2019-05-25T01:39:16.501Z,11.65
2019-05-25T01:40:16.501Z,11.64
2019-05-25T01:41:16.465Z,11.65
2019-05-25T01:42:16.445Z,11.79
2019-05-25T01:43:16.428Z,11.69
2019-05-25T01:44:16.408Z,11.70
2019-05-25T01:45:16.399Z,11.67
2019-05-25T01:46:16.388Z,11.69
2019-05-25T01:47:16.355Z,11.70
2019-05-25T01:48:16.339Z,11.55
2019-05-25T01:49:16.317Z,11.54
2019-05-25T01:50:16.303Z,11.52
2019-05-25T01:51:16.295Z,11.55
2019-05-25T01:52:16.264Z,11.37
2019-05-25T01:53:16.247Z,11.35
2019-05-25T01:54:16.225Z,11.35
2019-05-25T01:55:16.207Z,11.32
2019-05-25T01:56:16.200Z,11.24
2019-05-25T01:57:16.169Z,11.18
2019-05-25T01:58:16.149Z,11.11
2019-05-25T01:59:16.132Z,11.15
2019-05-25T02:00:16.115Z,11.09
2019-05-25T02:01:16.114Z,11.17
2019-05-25T02:02:16.103Z,11.14
2019-05-25T02:03:16.058Z,11.21
2019-05-25T02:04:16.041Z,11.33
2019-05-25T02:05:16.020Z,11.33
2019-05-25T02:06:16.003Z,11.39
2019-05-25T02:07:16.002Z,11.46
2019-05-25T02:08:15.965Z,11.51
2019-05-25T02:09:15.944Z,11.51
2019-05-25T02:10:15.929Z,11.40
2019-05-25T02:11:15.909Z,11.44
2019-05-25T02:12:15.906Z,11.35
2019-05-25T02:13:15.869Z,11.40
2019-05-25T02:14:15.853Z,11.36
2019-05-25T02:15:15.833Z,11.19
2019-05-25T02:16:15.815Z,11.11
2019-05-25T02:17:15.813Z,11.07
2019-05-25T02:18:15.781Z,11.14
2019-05-25T02:19:15.759Z,11.04
2019-05-25T02:20:15.741Z,11.03
2019-05-25T02:21:15.720Z,10.89
2019-05-25T02:22:15.730Z,11.03
2019-05-25T02:23:15.686Z,10.89
2019-05-25T02:24:15.667Z,10.86
2019-05-25T02:25:18.173Z,10.99
2019-05-25T02:26:15.630Z,10.92
2019-05-25T02:27:15.613Z,10.89
2019-05-25T02:28:15.604Z,10.88
2019-05-25T02:29:15.572Z,10.89
2019-05-25T02:30:15.554Z,10.79
2019-05-25T06:34:16.225Z,16.64
2019-05-25T06:35:16.196Z,16.38
2019-05-25T06:36:16.276Z,16.48
2019-05-25T06:37:16.160Z,16.57
2019-05-25T06:38:16.134Z,17.12
2019-05-25T06:39:16.141Z,17.22
2019-05-25T06:40:16.098Z,17.64
2019-05-25T06:41:16.080Z,16.96
2019-05-25T06:42:16.060Z,16.88
2019-05-25T06:43:16.049Z,17.01
2019-05-25T06:44:16.048Z,17.03
2019-05-25T06:45:16.020Z,16.73
2019-05-25T06:46:15.992Z,17.26
2019-05-25T06:47:15.975Z,16.93
2019-05-25T06:48:15.956Z,16.63
2019-05-25T06:49:15.941Z,16.60
2019-05-25T06:50:15.939Z,17.07
2019-05-25T06:51:15.908Z,16.42
2019-05-25T06:52:15.895Z,16.45
2019-05-25T06:53:15.875Z,16.89
2019-05-25T06:54:15.860Z,17.44
2019-05-25T06:55:15.860Z,17.55
2019-05-25T06:56:15.828Z,17.18
2019-05-25T06:57:15.813Z,16.78
2019-05-25T06:58:15.795Z,17.22
2019-05-25T06:59:15.779Z,17.64
2019-05-25T07:00:15.777Z,17.74
2019-05-25T07:01:15.746Z,17.84
2019-05-25T07:02:15.727Z,17.22
2019-05-25T07:03:15.714Z,17.58
2019-05-25T07:04:15.696Z,17.63
2019-05-25T07:05:15.695Z,17.28
2019-05-25T07:06:15.665Z,18.00
2019-05-25T07:07:15.651Z,18.57
2019-05-25T07:08:15.633Z,18.85
2019-05-25T07:09:15.619Z,18.37
2019-05-25T07:10:15.619Z,17.58
2019-05-25T07:11:15.585Z,17.54
2019-05-25T07:12:15.570Z,17.78
2019-05-25T07:13:15.553Z,18.67
2019-05-25T07:14:15.539Z,18.58
2019-05-25T07:15:15.526Z,18.27
2019-05-25T07:16:15.526Z,17.58
2019-05-25T07:17:15.493Z,17.81
2019-05-25T07:18:15.477Z,18.26
2019-05-25T07:19:15.465Z,18.10
2019-05-25T07:20:15.448Z,18.37
2019-05-25T07:21:15.450Z,18.39
2019-05-25T07:22:15.485Z,18.02
2019-05-25T07:23:15.402Z,17.43
2019-05-25T07:24:15.389Z,17.28
2019-05-25T07:25:15.369Z,17.33
2019-05-25T07:26:15.373Z,16.94
2019-05-25T07:27:15.340Z,16.66
2019-05-25T07:28:15.323Z,16.45
2019-05-25T07:29:15.309Z,16.42
2019-05-25T07:45:42.734Z,16.25
2019-05-25T07:46:42.696Z,16.34
2019-05-25T07:47:42.695Z,16.57
2019-05-25T07:48:42.659Z,16.43
2019-05-25T07:49:42.648Z,16.46
2019-05-25T07:50:42.626Z,16.45
2019-05-25T07:51:42.622Z,16.35
2019-05-25T07:52:42.607Z,16.25
2019-05-25T07:53:42.577Z,16.57
2019-05-25T07:54:42.562Z,16.88
2019-05-25T07:55:42.543Z,17.06
2019-05-25T07:56:42.529Z,17.06
2019-05-25T07:57:42.530Z,16.66
2019-05-25T07:58:42.495Z,16.49
2019-05-25T07:59:42.479Z,16.39
2019-05-25T08:00:42.463Z,16.66
2019-05-25T08:01:42.449Z,16.88
2019-05-25T08:02:42.433Z,16.86
2019-05-25T08:03:42.537Z,16.70
2019-05-25T08:04:42.402Z,16.63
2019-05-25T08:05:42.387Z,16.52
2019-05-25T08:06:42.380Z,16.46
2019-05-25T08:07:42.354Z,16.58
2019-05-25T08:08:42.353Z,16.53
2019-05-25T08:09:42.325Z,16.57
2019-05-25T08:10:42.308Z,16.67
2019-05-25T08:11:42.297Z,16.73
2019-05-25T08:12:42.277Z,16.98
2019-05-25T08:13:42.282Z,16.88
2019-05-25T08:14:45.013Z,16.98
2019-05-25T08:15:42.231Z,17.21
2019-05-25T08:16:42.216Z,17.38
2019-05-25T08:17:42.199Z,17.41
2019-05-25T08:18:42.187Z,17.18
2019-05-25T08:19:42.186Z,17.31
2019-05-25T08:20:42.156Z,17.22
2019-05-25T08:21:42.142Z,17.12
2019-05-25T08:22:42.127Z,17.18
2019-05-25T08:23:42.113Z,17.16
2019-05-25T08:24:42.109Z,17.21
2019-05-25T08:25:42.077Z,17.16
2019-05-25T08:26:42.078Z,17.11
2019-05-25T08:27:42.048Z,16.85
2019-05-25T08:28:42.033Z,16.93
2019-05-25T08:29:42.033Z,16.96
2019-05-25T08:30:42.039Z,16.98
2019-05-25T08:31:42.005Z,17.11
2019-05-25T08:32:41.980Z,16.98
2019-05-25T08:33:41.958Z,17.08
2019-05-25T08:34:41.957Z,17.07
2019-05-25T08:35:41.927Z,16.86
2019-05-25T08:46:15.752Z,16.93
2019-05-25T08:47:15.720Z,17.07
2019-05-25T08:48:15.705Z,16.94
2019-05-25T08:49:15.689Z,17.11
2019-05-25T08:50:15.709Z,16.76
2019-05-25T08:51:15.657Z,17.04
2019-05-25T08:52:15.644Z,17.12
2019-05-25T08:53:15.628Z,17.12
2019-05-25T08:54:15.605Z,17.23
2019-05-25T09:05:22.959Z,17.51
2019-05-25T09:06:22.926Z,17.56
2019-05-25T09:07:22.923Z,17.40
2019-05-25T09:08:22.892Z,17.41
2019-05-25T09:09:22.893Z,17.51
2019-05-25T09:10:22.877Z,17.70
2019-05-25T09:11:22.848Z,17.77
2019-05-25T09:12:22.832Z,17.66
2019-05-25T09:13:22.813Z,18.03
2019-05-25T09:14:22.831Z,18.25
2019-05-25T09:15:22.792Z,18.20
2019-05-25T09:16:22.781Z,18.37
2019-05-25T09:17:22.747Z,18.26
2019-05-25T09:18:22.741Z,18.41
2019-05-25T09:19:22.715Z,18.57
2019-05-25T09:20:22.712Z,18.41
2019-05-25T09:21:22.719Z,18.08
2019-05-25T09:22:22.669Z,17.63
2019-05-25T09:23:22.656Z,17.63
2019-05-25T09:24:22.640Z,17.58
2019-05-25T09:25:22.626Z,17.31
2019-05-25T09:26:22.612Z,17.52
2019-05-25T09:27:22.609Z,17.66
2019-05-25T09:28:22.576Z,17.56
2019-05-25T09:29:22.599Z,17.68
2019-05-25T09:30:22.584Z,17.66
2019-05-25T09:31:22.554Z,17.58
2019-05-25T09:32:22.559Z,17.58
2019-05-25T09:33:22.514Z,17.79
2019-05-25T09:34:22.499Z,18.21
2019-05-25T09:35:22.486Z,18.25
2019-05-25T09:36:22.463Z,18.32
2019-05-25T09:37:22.460Z,18.15
2019-05-25T09:38:22.425Z,17.95
2019-05-25T09:39:22.412Z,18.08
2019-05-25T09:40:22.410Z,18.18
2019-05-25T09:41:22.419Z,18.00
2019-05-25T09:42:22.396Z,17.99
2019-05-25T09:43:22.362Z,17.62
2019-05-25T09:44:22.340Z,17.33
2019-05-25T09:45:22.334Z,17.58
2019-05-25T09:46:22.325Z,17.75
2019-05-25T09:47:22.301Z,17.92
2019-05-25T09:48:22.306Z,18.15
2019-05-25T09:49:22.275Z,18.37
2019-05-25T09:50:22.289Z,18.54
2019-05-25T09:51:22.251Z,18.84
2019-05-25T09:52:22.240Z,19.13
2019-05-25T09:53:22.277Z,19.33
2019-05-25T09:54:22.217Z,19.14
2019-05-25T09:55:22.191Z,19.13
2019-05-25T09:56:22.187Z,19.18
2019-05-25T09:57:22.164Z,18.80
2019-05-25T09:58:22.162Z,18.08
2019-05-25T09:59:22.170Z,18.07
2019-05-25T10:00:22.181Z,18.32
2019-05-25T10:01:22.114Z,18.41
2019-05-25T10:02:22.140Z,18.73
2019-05-25T10:03:22.090Z,18.52
2019-05-25T10:04:22.083Z,18.75
2019-05-25T10:05:22.111Z,18.75
2019-05-25T10:06:22.070Z,18.85
2019-05-25T10:07:22.027Z,18.80
2019-05-25T10:08:22.012Z,18.47
2019-05-25T10:09:22.033Z,18.52
2019-05-25T10:10:21.985Z,18.81
2019-05-25T10:11:21.968Z,18.76
2019-05-25T10:12:21.954Z,18.66
2019-05-25T10:13:21.935Z,18.58
2019-05-25T10:14:21.947Z,18.69
2019-05-25T10:15:21.940Z,18.69
2019-05-25T10:16:21.904Z,18.82
2019-05-25T10:17:21.886Z,18.85
2019-05-25T10:18:21.876Z,18.55
2019-05-25T10:19:21.869Z,18.72
2019-05-25T10:20:21.873Z,18.85
2019-05-25T10:21:21.821Z,18.88
2019-05-25T10:22:21.801Z,18.75
2019-05-25T10:23:21.803Z,18.82
2019-05-25T10:24:21.772Z,18.82
2019-05-25T10:25:21.767Z,18.98
2019-05-25T10:26:23.170Z,19.19
2019-05-25T10:27:21.725Z,19.37
2019-05-25T10:28:21.710Z,19.32
2019-05-25T10:29:36.000Z,19.55
2019-05-25T10:30:21.697Z,18.92
2019-05-25T10:31:21.670Z,18.98
2019-05-25T10:32:21.657Z,19.02
2019-05-25T10:33:21.929Z,19.16
2019-05-25T10:34:21.627Z,19.19
2019-05-25T10:35:21.630Z,19.19
2019-05-25T10:36:21.601Z,19.40
2019-05-25T10:37:21.586Z,19.22
2019-05-25T10:38:21.575Z,19.50
2019-05-25T10:39:21.559Z,19.77
2019-05-25T10:40:21.558Z,20.06
2019-05-25T10:41:21.532Z,19.83
2019-05-25T10:42:21.520Z,20.10
2019-05-25T10:43:21.512Z,20.13
2019-05-25T10:44:21.491Z,20.39
2019-05-25T10:45:21.497Z,20.28
2019-05-25T10:46:21.463Z,19.66
2019-05-25T10:47:21.451Z,19.61
2019-05-25T10:48:21.439Z,19.61
2019-05-25T10:49:21.425Z,19.48
2019-05-25T10:50:21.428Z,19.44
2019-05-25T10:51:21.406Z,19.76
2019-05-25T10:52:21.386Z,19.78
2019-05-25T10:53:21.371Z,19.80
2019-05-25T10:54:21.357Z,19.98
2019-05-25T10:55:21.345Z,19.80
2019-05-25T10:56:21.345Z,19.83
2019-05-25T10:57:21.323Z,19.95
2019-05-25T10:58:21.304Z,20.38
2019-05-25T10:59:21.291Z,20.69
2019-05-25T11:00:21.278Z,19.95
2019-05-25T11:01:21.279Z,20.21
2019-05-25T11:02:21.256Z,20.32
2019-05-25T11:03:21.241Z,20.42
2019-05-25T11:04:21.224Z,20.69
2019-05-25T11:05:21.211Z,20.70
2019-05-25T11:06:21.214Z,20.74
2019-05-25T11:07:21.192Z,20.82
2019-05-25T11:08:21.173Z,20.74
2019-05-25T11:09:21.157Z,20.26
2019-05-25T11:10:21.145Z,20.59
2019-05-25T11:11:21.130Z,20.94
2019-05-25T11:12:21.133Z,20.58
2019-05-25T11:13:21.105Z,20.38
2019-05-25T11:14:21.096Z,20.73
2019-05-25T11:15:21.076Z,21.09
2019-05-25T11:16:21.067Z,20.52
2019-05-25T11:17:21.064Z,20.77
2019-05-25T11:18:21.049Z,20.92
2019-05-25T11:19:24.042Z,20.50
2019-05-25T11:20:21.011Z,20.77
2019-05-25T11:21:20.998Z,21.24
2019-05-25T11:22:21.012Z,21.74
2019-05-25T11:23:20.978Z,21.44
2019-05-25T11:24:20.958Z,21.67
2019-05-25T11:25:20.942Z,21.88
2019-05-25T11:26:20.936Z,22.14
2019-05-25T11:27:20.928Z,22.24
2019-05-25T11:28:20.903Z,21.80
2019-05-25T11:29:20.890Z,21.37
2019-05-25T11:30:20.878Z,21.25
2019-05-25T11:31:20.862Z,21.62
2019-05-25T11:32:20.871Z,21.96
2019-05-25T11:33:20.839Z,21.86
2019-05-25T11:34:20.824Z,21.58
2019-05-25T11:35:20.809Z,22.02
2019-05-25T11:36:20.795Z,22.79
2019-05-25T11:37:20.785Z,22.40
2019-05-25T11:38:20.784Z,22.94
2019-05-25T11:39:20.761Z,22.42
2019-05-25T11:40:20.743Z,22.82
2019-05-25T11:41:20.732Z,22.80
2019-05-25T11:42:20.717Z,22.97
2019-05-25T11:43:20.722Z,23.15
2019-05-25T11:44:20.691Z,22.46
2019-05-25T11:45:20.679Z,21.72
2019-05-25T11:46:20.666Z,22.03
2019-05-25T11:47:20.656Z,21.80
2019-05-25T11:48:20.639Z,21.71
2019-05-25T11:49:22.758Z,21.75
2019-05-25T11:50:20.619Z,21.84
2019-05-25T11:51:20.619Z,22.05
2019-05-25T11:52:20.590Z,22.28
2019-05-25T11:53:20.596Z,21.56
2019-05-25T11:54:20.564Z,21.72
2019-05-25T11:55:20.555Z,22.30
2019-05-25T11:56:20.544Z,21.79
2019-05-25T11:57:20.524Z,21.96
2019-05-25T11:58:20.511Z,22.45
2019-05-25T11:59:20.515Z,22.45
2019-05-25T12:00:26.048Z,22.76
2019-05-25T12:01:20.474Z,22.88
2019-05-25T12:02:20.462Z,22.55
2019-05-25T12:03:20.459Z,21.28
2019-05-25T12:04:20.435Z,21.24
2019-05-25T12:05:20.422Z,21.25
2019-05-25T12:06:20.410Z,21.79
2019-05-25T12:07:20.399Z,22.15
2019-05-25T12:08:20.397Z,22.57
2019-05-25T12:09:20.370Z,23.04
2019-05-25T12:10:20.359Z,23.25
2019-05-25T12:11:20.355Z,23.47
2019-05-25T12:12:20.406Z,23.51
2019-05-25T12:13:20.339Z,23.75
2019-05-25T12:14:20.307Z,23.63
2019-05-25T12:15:20.294Z,23.76
2019-05-25T12:16:20.283Z,23.02
2019-05-25T12:17:20.270Z,22.30
2019-05-25T12:18:20.272Z,22.72
2019-05-25T12:19:20.255Z,22.94
2019-05-25T12:20:20.232Z,22.61
2019-05-25T12:21:20.218Z,22.20
2019-05-25T12:22:20.207Z,22.14
2019-05-25T12:23:20.211Z,22.37
2019-05-25T12:24:20.185Z,22.31
2019-05-25T12:25:20.167Z,22.55
2019-05-25T12:26:20.157Z,23.31
2019-05-25T12:27:20.155Z,22.80
2019-05-25T12:28:20.133Z,23.66
2019-05-25T12:29:20.135Z,23.65
2019-05-25T12:30:20.121Z,23.31
2019-05-25T12:31:20.094Z,23.51
2019-05-25T12:32:20.081Z,22.35
2019-05-25T12:33:20.070Z,22.65
2019-05-25T12:34:20.072Z,22.98
2019-05-25T12:35:20.043Z,22.65
2019-05-25T12:36:20.032Z,22.62
2019-05-25T12:37:20.022Z,23.15
2019-05-25T12:38:20.010Z,23.70
2019-05-25T12:39:20.016Z,24.06
2019-05-25T12:40:19.990Z,23.38
2019-05-25T12:41:19.972Z,22.91
2019-05-25T12:42:19.962Z,23.40
2019-05-25T12:43:19.948Z,22.43
2019-05-25T12:44:19.937Z,22.68
2019-05-25T12:45:19.939Z,22.39
2019-05-25T12:46:19.913Z,22.49
2019-05-25T12:47:19.900Z,23.33
2019-05-25T12:48:19.890Z,24.05
2019-05-25T12:49:19.878Z,22.30
2019-05-25T12:50:19.881Z,21.38
2019-05-25T12:51:19.854Z,21.50
2019-05-25T12:52:19.843Z,21.69
2019-05-25T12:53:19.828Z,21.96
2019-05-25T12:54:19.819Z,21.86
2019-05-25T12:55:19.822Z,22.46
2019-05-25T12:56:19.800Z,22.31
2019-05-25T12:57:19.800Z,21.80
2019-05-25T12:58:19.774Z,22.03
2019-05-25T12:59:19.773Z,22.02
2019-05-25T13:00:19.762Z,22.37
2019-05-25T13:01:19.737Z,21.88
2019-05-25T13:02:19.726Z,21.53
2019-05-25T13:03:19.713Z,21.50
2019-05-25T13:04:19.703Z,22.76
2019-05-25T13:05:32.933Z,22.95
2019-05-25T13:06:19.678Z,22.36
2019-05-25T13:07:19.665Z,22.42
2019-05-25T13:08:19.657Z,22.91
2019-05-25T13:09:19.644Z,23.01
2019-05-25T13:10:19.650Z,23.36
2019-05-25T13:11:19.623Z,22.97
2019-05-25T13:12:19.615Z,23.04
2019-05-25T13:13:19.602Z,23.69
2019-05-25T13:14:19.594Z,23.51
2019-05-25T13:15:19.592Z,24.22
2019-05-25T13:16:19.567Z,24.50
2019-05-25T13:17:19.561Z,24.39
2019-05-25T13:18:19.549Z,24.42
2019-05-25T13:19:19.546Z,24.62
2019-05-25T13:20:19.543Z,25.39
2019-05-25T13:21:19.516Z,24.22
2019-05-25T13:22:19.507Z,23.63
2019-05-25T13:23:19.496Z,24.32
2019-05-25T13:24:19.486Z,24.25
2019-05-25T13:25:19.492Z,24.10
2019-05-25T13:26:19.470Z,24.00
2019-05-25T13:27:19.456Z,23.16
2019-05-25T13:28:19.448Z,23.33
2019-05-25T13:29:19.438Z,23.40
2019-05-25T13:30:19.442Z,24.52
2019-05-25T13:31:19.418Z,24.57
2019-05-25T13:32:19.409Z,24.87
2019-05-25T13:33:19.402Z,23.32
2019-05-25T13:34:19.407Z,22.15
2019-05-25T13:35:19.381Z,22.51
2019-05-25T13:36:19.370Z,23.02
2019-05-25T13:37:19.363Z,23.38
2019-05-25T13:38:19.357Z,23.65
2019-05-25T13:39:19.359Z,24.58
2019-05-25T13:40:19.336Z,25.03
2019-05-25T13:41:19.326Z,23.85
2019-05-25T13:42:19.319Z,24.77
2019-05-25T13:43:19.306Z,24.93
2019-05-25T13:44:19.311Z,25.21
2019-05-25T13:45:19.288Z,25.55
2019-05-25T13:46:19.280Z,25.46
2019-05-25T13:47:19.270Z,25.35
2019-05-25T13:48:19.265Z,25.94
2019-05-25T13:49:19.270Z,25.90
2019-05-25T13:50:19.247Z,25.30
2019-05-25T13:51:19.242Z,24.65
2019-05-25T13:52:19.239Z,25.15
2019-05-25T13:53:19.221Z,24.81
2019-05-25T13:54:19.230Z,24.49
2019-05-25T13:55:19.208Z,25.03
2019-05-25T13:56:19.209Z,24.95
2019-05-25T13:57:19.193Z,23.72
2019-05-25T13:58:19.188Z,22.76
2019-05-25T13:59:19.190Z,23.70
2019-05-25T14:00:19.170Z,24.22
2019-05-25T14:01:27.844Z,23.10
2019-05-25T14:02:19.155Z,21.62
2019-05-25T14:03:19.146Z,21.03
2019-05-25T14:04:19.152Z,21.44
2019-05-25T14:05:19.131Z,23.31
2019-05-25T14:06:19.126Z,24.03
2019-05-25T14:07:19.117Z,24.93
2019-05-25T14:08:19.114Z,24.67
2019-05-25T14:09:19.114Z,23.47
2019-05-25T14:10:19.101Z,24.05
2019-05-25T14:11:19.082Z,23.39
2019-05-25T14:12:19.074Z,23.40
2019-05-25T14:13:19.068Z,23.04
2019-05-25T14:14:19.073Z,24.00
2019-05-25T14:15:19.052Z,23.75
2019-05-25T14:16:19.042Z,24.21
2019-05-25T14:17:19.035Z,24.16
2019-05-25T14:18:19.029Z,23.93
2019-05-25T14:19:19.034Z,24.52
2019-05-25T14:20:19.012Z,24.60
2019-05-25T14:21:19.007Z,24.78
2019-05-25T14:22:18.999Z,23.43
2019-05-25T14:23:18.991Z,24.64
2019-05-25T14:24:19.022Z,25.03
2019-05-25T14:25:18.976Z,25.50
2019-05-25T14:26:18.971Z,26.52
2019-05-25T14:27:18.963Z,27.28
2019-05-25T14:28:18.957Z,25.77
2019-05-25T14:29:18.950Z,26.45
2019-05-25T14:30:18.958Z,24.31
2019-05-25T14:31:18.937Z,24.16
2019-05-25T14:32:18.935Z,24.62
2019-05-25T14:33:18.924Z,23.60
2019-05-25T14:34:18.916Z,24.09
2019-05-25T14:35:18.926Z,24.80
2019-05-25T14:36:18.913Z,25.82
2019-05-25T14:37:18.900Z,26.75
2019-05-25T14:38:18.894Z,25.70
2019-05-25T14:39:18.885Z,26.18
2019-05-25T14:40:18.894Z,24.73
2019-05-25T14:41:18.874Z,24.03
2019-05-25T14:42:18.866Z,24.15
2019-05-25T14:43:18.861Z,23.13
2019-05-25T14:44:18.855Z,22.92
2019-05-25T14:45:18.863Z,21.67
2019-05-25T14:46:27.376Z,21.29
2019-05-25T14:47:18.835Z,21.28
2019-05-25T14:48:18.830Z,21.54
2019-05-25T14:49:18.826Z,22.43
2019-05-25T14:50:18.828Z,21.74
2019-05-25T14:51:18.807Z,21.62
2019-05-25T14:52:18.798Z,23.51
2019-05-25T14:53:18.811Z,24.37
2019-05-25T14:54:18.787Z,24.47
2019-05-25T14:55:18.792Z,24.10
2019-05-25T14:56:18.771Z,24.05
2019-05-25T14:57:18.762Z,24.28
2019-05-25T14:58:18.757Z,24.39
2019-05-25T14:59:18.747Z,24.15
2019-05-25T15:00:18.835Z,24.27
2019-05-25T15:01:18.735Z,24.05
2019-05-25T15:02:18.729Z,23.84
2019-05-25T15:03:18.745Z,24.73
2019-05-25T15:04:18.712Z,24.76
2019-05-25T15:05:18.719Z,24.52
2019-05-25T15:06:20.965Z,25.51
2019-05-25T15:07:18.698Z,25.73
2019-05-25T15:08:18.687Z,26.48
2019-05-25T15:09:18.680Z,25.75
2019-05-25T15:10:18.690Z,26.77
2019-05-25T15:11:18.669Z,27.77
2019-05-25T15:12:18.668Z,27.17
2019-05-25T15:13:18.685Z,26.21
2019-05-25T15:14:18.653Z,24.73
2019-05-25T15:15:18.662Z,25.58
2019-05-25T15:16:18.723Z,25.65
2019-05-25T15:17:18.635Z,25.51
2019-05-25T15:18:18.631Z,25.23
2019-05-25T15:19:18.625Z,25.32
2019-05-25T15:20:18.624Z,25.90
2019-05-25T15:21:18.960Z,25.35
2019-05-25T15:22:18.613Z,25.43
2019-05-25T15:23:18.604Z,25.92
2019-05-25T15:24:18.601Z,25.69
2019-05-25T15:25:18.596Z,25.95
2019-05-25T15:26:18.605Z,27.02
2019-05-25T15:27:18.586Z,27.03
2019-05-25T15:28:18.583Z,27.28
2019-05-25T15:29:18.577Z,26.25
2019-05-25T15:30:18.573Z,26.58
2019-05-25T15:31:18.593Z,25.54
2019-05-25T15:32:20.369Z,24.15
2019-05-25T15:33:18.563Z,23.87
2019-05-25T15:34:18.556Z,23.95
2019-05-25T15:35:20.323Z,23.70
2019-05-25T15:36:18.567Z,23.13
2019-05-25T15:37:18.542Z,22.92
2019-05-25T15:38:18.538Z,23.95
2019-05-25T15:39:18.533Z,24.39
2019-05-25T15:40:18.530Z,25.00
2019-05-25T15:41:18.524Z,26.15
2019-05-25T15:42:18.538Z,25.95
2019-05-25T15:43:18.520Z,26.13
2019-05-25T15:44:18.511Z,26.05
2019-05-25T15:45:18.518Z,26.65
2019-05-25T15:46:18.504Z,25.95
2019-05-25T15:47:18.512Z,24.61
2019-05-25T15:48:18.497Z,24.27
2019-05-25T15:49:18.491Z,24.90
2019-05-25T15:50:18.486Z,25.35
2019-05-25T15:51:18.501Z,24.15
2019-05-25T15:52:18.491Z,24.06
2019-05-25T15:53:18.530Z,22.43
2019-05-25T15:54:18.466Z,21.65
2019-05-25T15:55:18.463Z,21.22
2019-05-25T15:56:18.460Z,20.72
2019-05-25T15:57:18.470Z,20.57
2019-05-25T15:58:18.449Z,20.47
2019-05-25T15:59:18.441Z,20.47
2019-05-25T16:00:18.434Z,22.24
2019-05-25T16:01:18.428Z,22.62
2019-05-25T16:02:18.436Z,22.77
2019-05-25T16:03:18.413Z,23.32
2019-05-25T16:04:18.407Z,23.04
2019-05-25T16:05:18.400Z,22.61
2019-05-25T16:06:18.397Z,23.05
2019-05-25T16:07:18.400Z,23.35
2019-05-25T16:08:18.380Z,24.20
2019-05-25T16:09:18.376Z,25.17
2019-05-25T16:10:18.366Z,25.33
2019-05-25T16:11:18.358Z,24.05
2019-05-25T16:12:18.367Z,24.46
2019-05-25T16:13:18.350Z,25.20
2019-05-25T16:14:18.353Z,25.13
2019-05-25T16:15:18.334Z,24.34
2019-05-25T16:16:18.330Z,25.40
2019-05-25T16:17:18.335Z,25.14
2019-05-25T16:18:18.318Z,26.09
2019-05-25T16:19:18.318Z,24.76
2019-05-25T16:20:18.305Z,24.47
2019-05-25T16:21:18.301Z,24.78
2019-05-25T16:22:18.307Z,25.30
2019-05-25T16:23:18.288Z,24.95
2019-05-25T16:24:18.283Z,25.24
2019-05-25T16:25:18.298Z,25.94
2019-05-25T16:26:18.274Z,24.61
2019-05-25T16:27:18.283Z,24.80
2019-05-25T16:28:18.261Z,25.45
2019-05-25T16:29:18.258Z,25.69
2019-05-25T16:30:18.254Z,24.60
2019-05-25T16:31:18.246Z,25.35
2019-05-25T16:32:18.258Z,26.45
2019-05-25T16:33:18.236Z,26.58
2019-05-25T16:34:18.233Z,27.41
2019-05-25T16:35:18.229Z,25.36
2019-05-25T16:36:18.226Z,25.30
2019-05-25T16:37:18.540Z,24.58
2019-05-25T16:38:18.217Z,25.52
2019-05-25T16:39:18.209Z,24.78
2019-05-25T16:40:18.209Z,25.25
2019-05-25T16:41:18.216Z,25.30
2019-05-25T16:42:18.197Z,25.46
2019-05-25T16:43:18.211Z,25.47
2019-05-25T16:44:18.202Z,26.15
2019-05-25T16:45:18.186Z,26.12
2019-05-25T16:46:18.181Z,24.46
2019-05-25T16:47:18.177Z,24.58
2019-05-25T16:48:18.195Z,24.76
2019-05-25T16:49:18.169Z,23.78
2019-05-25T16:50:18.165Z,23.57
2019-05-25T16:51:18.160Z,24.52
2019-05-25T16:52:18.156Z,24.52
2019-05-25T16:53:18.172Z,22.82
2019-05-25T16:54:18.154Z,21.35
2019-05-25T16:55:18.144Z,20.72
2019-05-25T16:56:18.137Z,20.39
2019-05-25T16:57:18.137Z,20.28
2019-05-25T16:58:18.131Z,21.10
2019-05-25T16:59:18.136Z,22.39
2019-05-25T17:00:18.129Z,22.79
2019-05-25T17:01:18.392Z,22.97
2019-05-25T17:02:18.105Z,22.15
2019-05-25T17:03:27.768Z,21.56
2019-05-25T17:04:18.110Z,21.47
2019-05-25T17:05:18.086Z,21.38
2019-05-25T17:06:18.085Z,21.37
2019-05-25T17:07:18.070Z,21.83
2019-05-25T17:08:18.278Z,22.75
2019-05-25T17:09:18.072Z,23.50
2019-05-25T17:10:18.046Z,22.30
2019-05-25T17:11:18.040Z,21.92
2019-05-25T17:12:18.037Z,21.50
2019-05-25T17:13:18.024Z,21.38
2019-05-25T17:14:18.037Z,21.01
2019-05-25T17:15:18.007Z,20.69
2019-05-25T17:16:17.998Z,20.72
2019-05-25T17:17:17.992Z,21.38
2019-05-25T17:18:17.983Z,21.67
2019-05-25T17:19:17.975Z,22.21
2019-05-25T17:20:17.976Z,21.82
2019-05-25T17:21:17.961Z,22.68
2019-05-25T17:22:17.947Z,22.98
2019-05-25T17:23:17.958Z,22.10
2019-05-25T17:24:17.928Z,22.06
2019-05-25T17:25:17.940Z,23.25
2019-05-25T17:26:17.911Z,24.05
2019-05-25T17:27:17.903Z,24.53
2019-05-25T17:28:17.896Z,24.69
2019-05-25T17:29:17.884Z,24.64
2019-05-25T17:30:17.892Z,24.60